createdAt,value
2019-02-17T00:00:03.334Z,26.45
2019-02-17T00:01:03.340Z,26.45
2019-02-17T00:02:56.294Z,26.82
2019-02-17T00:03:56.318Z,27.02
2019-02-17T00:05:49.273Z,26.92
2019-02-17T00:06:49.296Z,26.93
2019-02-17T00:08:42.238Z,27.13
2019-02-17T00:09:42.270Z,26.44
2019-02-17T00:11:35.224Z,26.92
2019-02-17T00:12:35.248Z,26.92
2019-02-17T00:14:28.190Z,26.92
2019-02-17T00:15:28.219Z,27.02
2019-02-17T00:17:21.172Z,26.92
2019-02-17T00:18:21.188Z,27.12
2019-02-17T00:20:14.157Z,26.92
2019-02-17T00:21:14.166Z,26.92
2019-02-17T00:23:07.116Z,26.92
2019-02-17T00:24:07.144Z,26.92
2019-02-17T00:26:00.097Z,26.82
2019-02-17T00:27:00.116Z,27.02
2019-02-17T00:28:59.549Z,26.73
2019-02-17T00:29:53.096Z,26.92
2019-02-17T00:31:46.050Z,27.22
2019-02-17T00:32:46.068Z,26.73
2019-02-17T00:34:39.012Z,26.82
2019-02-17T00:35:39.044Z,26.82
2019-02-17T00:37:31.992Z,27.12
2019-02-17T00:38:32.015Z,26.73
2019-02-17T00:40:24.964Z,26.54
2019-02-17T00:41:24.988Z,26.82
2019-02-17T00:43:17.943Z,26.82
2019-02-17T00:44:17.964Z,26.44
2019-02-17T00:46:10.925Z,27.12
2019-02-17T00:47:10.944Z,27.02
2019-02-17T00:49:03.888Z,26.92
2019-02-17T00:50:03.916Z,26.92
2019-02-17T00:51:56.871Z,27.12
2019-02-17T00:52:56.888Z,27.12
2019-02-17T00:54:49.835Z,27.22
2019-02-17T00:55:49.865Z,27.31
2019-02-17T00:57:42.815Z,27.31
2019-02-17T00:58:42.837Z,27.22
2019-02-17T01:00:35.799Z,27.22
2019-02-17T01:01:35.815Z,27.22
2019-02-17T01:03:28.767Z,27.40
2019-02-17T01:04:28.791Z,27.31
2019-02-17T01:06:21.741Z,27.22
2019-02-17T01:07:21.760Z,27.22
2019-02-17T01:09:14.704Z,27.31
2019-02-17T01:10:14.734Z,27.31
2019-02-17T01:12:07.690Z,27.31
2019-02-17T01:13:07.705Z,27.40
2019-02-17T01:15:00.650Z,27.31
2019-02-17T01:16:00.679Z,27.22
2019-02-17T01:17:53.632Z,27.22
2019-02-17T01:18:53.647Z,27.31
2019-02-17T01:20:46.592Z,27.22
2019-02-17T01:21:46.623Z,27.29
2019-02-17T01:23:39.575Z,27.59
2019-02-17T01:24:39.597Z,27.39
2019-02-17T01:26:32.547Z,27.59
2019-02-17T01:27:32.568Z,27.49
2019-02-17T01:29:25.545Z,27.49
2019-02-17T01:30:25.543Z,27.68
2019-02-17T01:32:18.493Z,27.49
2019-02-17T01:33:18.516Z,27.39
2019-02-17T01:35:11.485Z,27.49
2019-02-17T01:36:11.487Z,27.49
2019-02-17T01:38:04.444Z,27.49
2019-02-17T01:39:04.464Z,27.29
2019-02-17T01:40:57.408Z,27.39
2019-02-17T01:41:57.437Z,27.49
2019-02-17T01:43:50.388Z,27.29
2019-02-17T01:44:50.408Z,27.20
2019-02-17T01:46:43.385Z,27.20
2019-02-17T01:47:43.382Z,27.39
2019-02-17T01:49:36.328Z,27.49
2019-02-17T01:50:36.353Z,27.39
2019-02-17T01:52:29.306Z,27.59
2019-02-17T01:53:29.328Z,27.49
2019-02-17T01:55:22.274Z,27.68
2019-02-17T01:56:22.299Z,27.49
2019-02-17T01:58:15.760Z,27.68
2019-02-17T01:59:15.784Z,27.59
2019-02-17T02:01:08.738Z,27.68
2019-02-17T02:02:08.759Z,27.49
2019-02-17T02:04:01.715Z,27.59
2019-02-17T02:05:01.736Z,27.49
2019-02-17T02:06:54.679Z,27.78
2019-02-17T02:07:54.708Z,27.68
2019-02-17T02:09:47.663Z,27.78
2019-02-17T02:10:47.679Z,27.59
2019-02-17T02:12:41.135Z,27.68
2019-02-17T02:13:41.157Z,27.59
2019-02-17T02:15:34.603Z,27.59
2019-02-17T02:16:34.633Z,27.29
2019-02-17T02:18:27.584Z,27.59
2019-02-17T02:19:27.599Z,27.78
2019-02-17T02:21:20.544Z,27.59
2019-02-17T02:22:20.571Z,27.68
2019-02-17T02:24:14.024Z,27.29
2019-02-17T02:25:14.045Z,27.39
2019-02-17T02:27:06.990Z,27.11
2019-02-17T02:28:07.019Z,27.68
2019-02-17T02:29:59.968Z,27.68
2019-02-17T02:30:59.991Z,27.57
2019-02-17T02:32:52.945Z,27.68
2019-02-17T02:33:52.964Z,27.49
2019-02-17T02:35:45.909Z,27.59
2019-02-17T02:36:45.939Z,27.59
2019-02-17T02:38:38.895Z,27.59
2019-02-17T02:39:38.912Z,27.76
2019-02-17T02:41:34.634Z,27.68
2019-02-17T02:42:31.879Z,27.39
2019-02-17T02:44:24.839Z,27.49
2019-02-17T02:45:24.863Z,27.48
2019-02-17T02:47:17.801Z,27.59
2019-02-17T02:48:17.833Z,27.76
2019-02-17T02:50:10.785Z,27.96
2019-02-17T02:51:10.805Z,27.78
2019-02-17T02:53:03.768Z,27.76
2019-02-17T02:54:03.774Z,27.78
2019-02-17T02:55:56.719Z,27.48
2019-02-17T02:56:56.746Z,27.67
2019-02-17T02:58:50.190Z,27.86
2019-02-17T02:59:52.703Z,27.86
2019-02-17T03:01:43.157Z,27.76
2019-02-17T03:02:43.184Z,27.68
2019-02-17T03:04:36.132Z,27.86
2019-02-17T03:05:36.154Z,27.67
2019-02-17T03:07:29.101Z,27.96
2019-02-17T03:08:29.130Z,27.96
2019-02-17T03:10:22.084Z,28.15
2019-02-17T03:11:22.103Z,28.15
2019-02-17T03:13:15.058Z,27.86
2019-02-17T03:14:15.076Z,27.76
2019-02-17T03:16:08.024Z,27.76
2019-02-17T03:17:08.053Z,27.76
2019-02-17T03:19:01.004Z,27.76
2019-02-17T03:20:01.024Z,27.76
2019-02-17T03:21:53.982Z,28.15
2019-02-17T03:22:53.998Z,27.86
2019-02-17T03:24:46.956Z,28.15
2019-02-17T03:25:46.969Z,28.15
2019-02-17T03:27:39.918Z,27.86
2019-02-17T03:28:39.945Z,27.96
2019-02-17T03:30:32.899Z,27.96
2019-02-17T03:31:33.080Z,27.86
2019-02-17T03:33:25.868Z,28.05
2019-02-17T03:34:25.888Z,27.76
2019-02-17T03:36:18.877Z,27.76
2019-02-17T03:37:18.896Z,27.86
2019-02-17T03:39:12.348Z,27.86
2019-02-17T03:40:12.370Z,27.76
2019-02-17T03:42:05.313Z,27.96
2019-02-17T03:43:05.345Z,27.86
2019-02-17T03:44:58.298Z,28.15
2019-02-17T03:45:58.317Z,28.15
2019-02-17T03:47:51.262Z,28.15
2019-02-17T03:48:51.288Z,28.15
2019-02-17T03:50:44.239Z,28.15
2019-02-17T03:51:44.264Z,27.96
2019-02-17T03:53:37.221Z,27.76
2019-02-17T03:54:37.231Z,27.76
2019-02-17T03:56:30.175Z,27.57
2019-02-17T03:57:30.205Z,27.67
2019-02-17T03:59:23.162Z,28.05
2019-02-17T04:00:23.181Z,27.96
2019-02-17T04:02:16.124Z,28.05
2019-02-17T04:03:16.154Z,28.15
2019-02-17T04:05:09.104Z,28.15
2019-02-17T04:06:09.122Z,28.05
2019-02-17T04:08:02.065Z,28.25
2019-02-17T04:09:02.091Z,28.05
2019-02-17T04:10:55.049Z,28.05
2019-02-17T04:11:55.066Z,28.05
2019-02-17T04:13:48.021Z,28.05
2019-02-17T04:14:48.044Z,28.04
2019-02-17T04:16:40.988Z,28.15
2019-02-17T04:17:41.015Z,28.15
2019-02-17T04:19:33.968Z,28.15
2019-02-17T04:20:33.993Z,27.96
2019-02-17T04:22:26.941Z,27.96
2019-02-17T04:23:31.293Z,27.76
2019-02-17T04:25:19.918Z,27.86
2019-02-17T04:26:19.936Z,27.96
2019-02-17T04:28:12.879Z,27.76
2019-02-17T04:29:12.904Z,27.86
2019-02-17T04:31:05.862Z,28.25
2019-02-17T04:32:05.882Z,28.15
2019-02-17T04:33:58.849Z,27.96
2019-02-17T04:34:58.854Z,28.14
2019-02-17T04:36:51.797Z,28.05
2019-02-17T04:37:51.823Z,27.96
2019-02-17T04:39:44.782Z,28.15
2019-02-17T04:40:44.797Z,28.25
2019-02-17T04:42:37.750Z,27.94
2019-02-17T04:43:37.775Z,28.23
2019-02-17T04:45:30.723Z,28.33
2019-02-17T04:46:30.744Z,28.14
2019-02-17T04:48:23.686Z,28.33
2019-02-17T04:49:23.714Z,28.23
2019-02-17T04:51:16.664Z,28.44
2019-02-17T04:52:16.683Z,28.14
2019-02-17T04:54:09.628Z,28.04
2019-02-17T04:55:09.654Z,28.23
2019-02-17T04:57:02.604Z,28.14
2019-02-17T04:58:02.670Z,28.23
2019-02-17T04:59:55.575Z,28.14
2019-02-17T05:00:55.596Z,28.23
2019-02-17T05:02:48.544Z,28.14
2019-02-17T05:03:48.568Z,28.04
2019-02-17T05:05:41.520Z,28.23
2019-02-17T05:06:41.537Z,28.23
2019-02-17T05:08:34.491Z,28.33
2019-02-17T05:09:34.521Z,28.33
2019-02-17T05:11:27.467Z,28.23
2019-02-17T05:12:27.485Z,28.33
2019-02-17T05:14:20.428Z,28.14
2019-02-17T05:15:20.456Z,28.33
2019-02-17T05:17:13.411Z,28.33
2019-02-17T05:18:13.427Z,28.44
2019-02-17T05:20:06.381Z,28.04
2019-02-17T05:21:06.403Z,28.23
2019-02-17T05:22:59.350Z,28.23
2019-02-17T05:23:59.377Z,27.94
2019-02-17T05:25:52.329Z,28.14
2019-02-17T05:26:52.356Z,28.14
2019-02-17T05:28:45.292Z,28.33
2019-02-17T05:29:45.321Z,28.33
2019-02-17T05:31:38.760Z,28.14
2019-02-17T05:32:38.793Z,28.23
2019-02-17T05:34:31.727Z,28.23
2019-02-17T05:35:31.755Z,28.33
2019-02-17T05:37:24.708Z,28.33
2019-02-17T05:38:24.722Z,28.23
2019-02-17T05:40:17.742Z,28.33
2019-02-17T05:41:17.698Z,28.23
2019-02-17T05:43:10.637Z,28.14
2019-02-17T05:44:10.742Z,28.23
2019-02-17T05:46:03.620Z,28.33
2019-02-17T05:47:03.640Z,28.33
2019-02-17T05:48:56.584Z,28.23
2019-02-17T05:49:56.612Z,28.15
2019-02-17T05:51:49.568Z,27.75
2019-02-17T05:52:49.593Z,28.05
2019-02-17T05:54:42.557Z,27.76
2019-02-17T05:55:42.585Z,27.85
2019-02-17T05:57:35.539Z,28.14
2019-02-17T05:58:35.554Z,28.25
2019-02-17T06:00:29.014Z,28.05
2019-02-17T06:01:29.016Z,27.86
2019-02-17T06:03:21.962Z,27.86
2019-02-17T06:04:21.990Z,27.86
2019-02-17T06:06:15.240Z,27.76
2019-02-17T06:07:14.960Z,27.76
2019-02-17T06:09:07.905Z,27.48
2019-02-17T06:10:07.935Z,27.57
2019-02-17T06:12:00.961Z,27.67
2019-02-17T06:13:00.919Z,27.57
2019-02-17T06:14:53.857Z,27.57
2019-02-17T06:15:53.885Z,27.49
2019-02-17T06:17:46.836Z,27.59
2019-02-17T06:18:46.858Z,27.29
2019-02-17T06:20:39.800Z,27.59
2019-02-17T06:21:39.825Z,27.20
2019-02-17T06:23:32.776Z,27.29
2019-02-17T06:24:32.805Z,27.29
2019-02-17T06:26:25.749Z,27.68
2019-02-17T06:27:25.770Z,27.29
2019-02-17T06:29:18.715Z,27.20
2019-02-17T06:30:18.739Z,27.49
2019-02-17T06:32:11.692Z,27.59
2019-02-17T06:33:11.710Z,27.20
2019-02-17T06:35:04.655Z,27.29
2019-02-17T06:36:04.683Z,27.39
2019-02-17T06:37:57.632Z,27.11
2019-02-17T06:38:57.652Z,27.20
2019-02-17T06:40:50.598Z,27.49
2019-02-17T06:41:50.624Z,27.20
2019-02-17T06:43:43.583Z,27.68
2019-02-17T06:44:43.595Z,27.20
2019-02-17T06:46:36.583Z,27.59
2019-02-17T06:47:36.570Z,27.20
2019-02-17T06:49:29.509Z,27.20
2019-02-17T06:50:29.545Z,27.20
2019-02-17T06:52:22.486Z,27.59
2019-02-17T06:53:22.509Z,27.29
2019-02-17T06:55:15.455Z,27.29
2019-02-17T06:56:15.486Z,27.29
2019-02-17T06:58:08.441Z,27.78
2019-02-17T06:59:08.459Z,27.49
2019-02-17T07:01:01.400Z,27.68
2019-02-17T07:02:01.425Z,27.39
2019-02-17T07:03:54.376Z,27.20
2019-02-17T07:04:54.399Z,27.59
2019-02-17T07:06:47.350Z,27.59
2019-02-17T07:07:47.372Z,27.78
2019-02-17T07:09:40.311Z,27.29
2019-02-17T07:10:40.340Z,27.59
2019-02-17T07:12:33.289Z,27.29
2019-02-17T07:13:33.313Z,27.49
2019-02-17T07:15:26.251Z,27.68
2019-02-17T07:16:26.279Z,27.59
2019-02-17T07:18:19.237Z,27.29
2019-02-17T07:19:19.253Z,27.49
2019-02-17T07:21:12.201Z,27.49
2019-02-17T07:22:12.229Z,27.59
2019-02-17T07:24:05.179Z,27.68
2019-02-17T07:25:05.199Z,27.68
2019-02-17T07:26:58.143Z,27.49
2019-02-17T07:27:58.173Z,27.59
2019-02-17T07:29:51.127Z,27.59
2019-02-17T07:30:51.147Z,27.39
2019-02-17T07:32:44.100Z,27.49
2019-02-17T07:33:44.122Z,27.70
2019-02-17T07:35:37.127Z,27.50
2019-02-17T07:36:37.090Z,27.60
2019-02-17T07:38:30.045Z,27.31
2019-02-17T07:39:30.069Z,27.50
2019-02-17T07:41:23.013Z,27.60
2019-02-17T07:42:23.041Z,27.50
2019-02-17T07:44:15.993Z,27.80
2019-02-17T07:45:16.015Z,27.31
2019-02-17T07:47:08.966Z,27.31
2019-02-17T07:48:08.994Z,27.22
2019-02-17T07:50:01.946Z,27.31
2019-02-17T07:51:01.960Z,27.50
2019-02-17T07:52:54.912Z,27.22
2019-02-17T07:53:54.935Z,27.22
2019-02-17T07:55:47.881Z,27.12
2019-02-17T07:56:48.487Z,27.31
2019-02-17T07:58:40.864Z,27.31
2019-02-17T07:59:40.885Z,27.22
2019-02-17T08:01:33.828Z,27.02
2019-02-17T08:02:33.855Z,27.02
2019-02-17T08:04:26.810Z,27.12
2019-02-17T08:05:26.832Z,27.60
2019-02-17T08:07:19.775Z,27.70
2019-02-17T08:08:19.801Z,27.80
2019-02-17T08:10:12.755Z,27.50
2019-02-17T08:11:12.773Z,27.31
2019-02-17T08:13:05.720Z,27.80
2019-02-17T08:14:05.743Z,27.80
2019-02-17T08:15:58.688Z,27.70
2019-02-17T08:16:58.717Z,27.89
2019-02-17T08:18:51.673Z,28.08
2019-02-17T08:19:51.693Z,27.89
2019-02-17T08:21:44.639Z,28.00
2019-02-17T08:22:44.667Z,28.18
2019-02-17T08:24:37.619Z,28.29
2019-02-17T08:25:37.637Z,27.89
2019-02-17T08:27:30.586Z,28.28
2019-02-17T08:28:30.613Z,28.19
2019-02-17T08:30:23.794Z,28.19
2019-02-17T08:31:23.590Z,28.00
2019-02-17T08:33:16.561Z,28.29
2019-02-17T08:34:16.567Z,28.09
2019-02-17T08:36:09.539Z,28.19
2019-02-17T08:37:09.542Z,28.18
2019-02-17T08:39:02.567Z,28.29
2019-02-17T08:40:02.602Z,28.29
2019-02-17T08:41:55.536Z,28.09
2019-02-17T08:42:55.564Z,28.19
2019-02-17T08:44:48.520Z,28.00
2019-02-17T08:45:48.540Z,28.00
2019-02-17T08:47:41.487Z,27.91
2019-02-17T08:48:41.514Z,28.00
2019-02-17T08:50:34.467Z,28.29
2019-02-17T08:51:34.489Z,28.19
2019-02-17T08:53:27.447Z,27.71
2019-02-17T08:54:27.467Z,27.81
2019-02-17T08:56:20.422Z,27.51
2019-02-17T08:57:20.447Z,27.42
2019-02-17T08:59:13.400Z,27.23
2019-02-17T09:00:13.422Z,27.33
2019-02-17T09:02:06.504Z,27.61
2019-02-17T09:03:06.405Z,27.71
2019-02-17T09:04:59.852Z,27.44
2019-02-17T09:05:59.871Z,26.93
2019-02-17T09:07:52.817Z,26.84
2019-02-17T09:08:52.844Z,26.45
2019-02-17T09:10:45.799Z,26.26
2019-02-17T09:11:45.814Z,26.65
2019-02-17T09:13:38.769Z,26.66
2019-02-17T09:14:38.791Z,26.66
2019-02-17T09:16:31.745Z,26.56
2019-02-17T09:17:31.772Z,26.56
2019-02-17T09:19:24.747Z,26.56
2019-02-17T09:20:24.769Z,26.66
2019-02-17T09:22:17.710Z,26.95
2019-02-17T09:23:17.737Z,26.86
2019-02-17T09:25:10.691Z,27.04
2019-02-17T09:26:10.711Z,27.24
2019-02-17T09:28:03.734Z,26.37
2019-02-17T09:29:03.684Z,26.28
2019-02-17T09:30:56.640Z,26.18
2019-02-17T09:31:56.658Z,25.89
2019-02-17T09:33:49.617Z,25.31
2019-02-17T09:34:49.633Z,25.12
2019-02-17T09:36:42.583Z,24.92
2019-02-17T09:37:42.608Z,24.73
2019-02-17T09:39:35.557Z,24.44
2019-02-17T09:40:35.580Z,24.44
2019-02-17T09:42:28.525Z,23.96
2019-02-17T09:43:28.556Z,24.05
2019-02-17T09:45:21.507Z,23.66
2019-02-17T09:46:21.530Z,23.76
2019-02-17T09:48:14.474Z,23.66
2019-02-17T09:49:14.508Z,23.28
2019-02-17T09:51:07.455Z,23.38
2019-02-17T09:52:07.479Z,23.38
2019-02-17T09:54:00.423Z,23.18
2019-02-17T09:55:00.453Z,23.18
2019-02-17T09:56:53.407Z,22.89
2019-02-17T09:57:53.424Z,22.99
2019-02-17T09:59:46.378Z,22.60
2019-02-17T10:00:46.400Z,22.50
2019-02-17T10:02:39.346Z,22.50
2019-02-17T10:03:39.377Z,22.60
2019-02-17T10:05:32.330Z,22.60
2019-02-17T10:06:32.353Z,22.41
2019-02-17T10:08:25.295Z,22.50
2019-02-17T10:09:25.331Z,21.92
2019-02-17T10:11:18.278Z,22.12
2019-02-17T10:12:18.299Z,22.12
2019-02-17T10:14:11.245Z,22.50
2019-02-17T10:15:11.276Z,22.22
2019-02-17T10:17:04.229Z,21.64
2019-02-17T10:18:04.247Z,21.64
2019-02-17T10:19:57.216Z,21.92
2019-02-17T10:20:57.222Z,22.02
2019-02-17T10:22:50.167Z,21.83
2019-02-17T10:23:50.198Z,21.83
2019-02-17T10:25:43.148Z,21.83
2019-02-17T10:26:43.173Z,22.02
2019-02-17T10:28:42.315Z,21.64
2019-02-17T10:29:36.142Z,21.54
2019-02-17T10:31:29.094Z,21.83
2019-02-17T10:32:36.429Z,21.92
2019-02-17T10:34:22.064Z,21.54
2019-02-17T10:35:22.093Z,21.83
2019-02-17T10:37:15.040Z,21.54
2019-02-17T10:38:15.063Z,21.83
2019-02-17T10:40:08.007Z,21.54
2019-02-17T10:41:08.041Z,21.83
2019-02-17T10:43:00.998Z,21.73
2019-02-17T10:44:01.028Z,21.54
2019-02-17T10:45:53.978Z,21.92
2019-02-17T10:46:54.003Z,21.73
2019-02-17T10:48:47.054Z,21.54
2019-02-17T10:49:46.982Z,21.64
2019-02-17T10:51:39.932Z,21.83
2019-02-17T10:52:39.951Z,21.44
2019-02-17T10:54:32.897Z,21.73
2019-02-17T10:55:32.933Z,21.54
2019-02-17T10:57:25.884Z,21.73
2019-02-17T10:58:25.896Z,21.64
2019-02-17T11:00:18.901Z,21.73
2019-02-17T11:01:18.874Z,21.83
2019-02-17T11:03:11.833Z,21.73
2019-02-17T11:04:11.851Z,21.44
2019-02-17T11:06:04.797Z,21.44
2019-02-17T11:07:04.821Z,21.73
2019-02-17T11:08:57.766Z,21.73
2019-02-17T11:09:57.796Z,21.54
2019-02-17T11:11:50.755Z,21.83
2019-02-17T11:12:50.774Z,21.83
2019-02-17T11:14:43.716Z,21.73
2019-02-17T11:15:43.805Z,21.44
2019-02-17T11:17:36.745Z,21.54
2019-02-17T11:18:36.721Z,21.64
2019-02-17T11:20:29.666Z,21.54
2019-02-17T11:21:29.695Z,21.73
2019-02-17T11:23:22.650Z,21.73
2019-02-17T11:24:22.664Z,21.83
2019-02-17T11:26:15.623Z,21.73
2019-02-17T11:27:15.648Z,21.73
2019-02-17T11:29:08.589Z,21.73
2019-02-17T11:30:08.620Z,21.83
2019-02-17T11:32:02.260Z,22.02
2019-02-17T11:33:02.086Z,22.22
2019-02-17T11:34:55.028Z,21.73
2019-02-17T11:35:55.060Z,21.83
2019-02-17T11:37:48.013Z,22.12
2019-02-17T11:38:48.034Z,22.12
2019-02-17T11:40:40.980Z,22.31
2019-02-17T11:41:41.010Z,22.60
2019-02-17T11:43:33.965Z,22.41
2019-02-17T11:44:33.984Z,22.60
2019-02-17T11:46:26.946Z,22.50
2019-02-17T11:47:26.958Z,22.41
2019-02-17T11:49:19.903Z,22.80
2019-02-17T11:50:19.932Z,22.80
2019-02-17T11:52:12.890Z,23.08
2019-02-17T11:53:12.901Z,23.28
2019-02-17T11:55:05.854Z,23.18
2019-02-17T11:56:05.880Z,23.38
2019-02-17T11:57:58.834Z,23.28
2019-02-17T11:58:58.856Z,23.38
2019-02-17T12:00:51.802Z,23.57
2019-02-17T12:01:51.831Z,23.57
2019-02-17T12:03:44.788Z,23.76
2019-02-17T12:04:44.809Z,23.77
2019-02-17T12:06:37.764Z,23.68
2019-02-17T12:07:37.785Z,23.86
2019-02-17T12:09:30.733Z,24.16
2019-02-17T12:10:30.757Z,23.96
2019-02-17T12:12:23.718Z,24.45
2019-02-17T12:13:23.732Z,24.45
2019-02-17T12:15:16.681Z,24.16
2019-02-17T12:16:16.715Z,24.35
2019-02-17T12:18:09.666Z,24.35
2019-02-17T12:19:09.691Z,24.16
2019-02-17T12:21:02.635Z,24.37
2019-02-17T12:22:02.664Z,24.37
2019-02-17T12:23:55.619Z,24.27
2019-02-17T12:24:55.641Z,24.17
2019-02-17T12:26:49.808Z,24.27
2019-02-17T12:27:48.622Z,24.46
2019-02-17T12:29:41.566Z,24.17
2019-02-17T12:30:41.596Z,24.27
2019-02-17T12:32:34.547Z,24.09
2019-02-17T12:33:34.566Z,24.09
2019-02-17T12:35:27.513Z,23.99
2019-02-17T12:36:27.544Z,24.18
2019-02-17T12:38:20.500Z,23.99
2019-02-17T12:39:20.522Z,23.60
2019-02-17T12:41:13.467Z,23.42
2019-02-17T12:42:13.494Z,23.33
2019-02-17T12:44:06.453Z,23.33
2019-02-17T12:45:06.472Z,22.84
2019-02-17T12:46:59.430Z,23.33
2019-02-17T12:47:59.454Z,22.84
2019-02-17T12:49:52.885Z,22.55
2019-02-17T12:50:52.919Z,22.66
2019-02-17T12:52:47.741Z,22.47
2019-02-17T12:53:47.823Z,21.89
2019-02-17T12:55:38.876Z,21.89
2019-02-17T12:56:38.898Z,21.89
2019-02-17T12:58:32.348Z,21.51
2019-02-17T12:59:32.369Z,21.61
2019-02-17T13:01:25.316Z,21.14
2019-02-17T13:02:25.354Z,21.24
2019-02-17T13:04:18.304Z,21.62
2019-02-17T13:05:18.324Z,22.02
2019-02-17T13:07:11.282Z,22.02
2019-02-17T13:08:11.303Z,22.11
2019-02-17T13:10:04.252Z,22.58
2019-02-17T13:11:04.280Z,22.58
2019-02-17T13:12:57.241Z,22.68
2019-02-17T13:13:57.267Z,22.58
2019-02-17T13:15:50.214Z,22.58
2019-02-17T13:16:50.243Z,22.68
2019-02-17T13:18:43.197Z,23.36
2019-02-17T13:19:43.220Z,23.26
2019-02-17T13:21:36.167Z,23.46
2019-02-17T13:22:36.197Z,23.16
2019-02-17T13:24:29.155Z,23.44
2019-02-17T13:25:29.176Z,23.46
2019-02-17T13:27:22.148Z,23.35
2019-02-17T13:28:22.162Z,23.64
2019-02-17T13:30:15.109Z,23.64
2019-02-17T13:31:15.141Z,23.83
2019-02-17T13:33:08.096Z,24.41
2019-02-17T13:34:08.119Z,24.41
2019-02-17T13:36:01.066Z,24.03
2019-02-17T13:37:01.100Z,24.12
2019-02-17T13:38:54.057Z,24.41
2019-02-17T13:39:54.075Z,24.32
2019-02-17T13:41:47.054Z,23.93
2019-02-17T13:42:47.094Z,24.03
2019-02-17T13:44:40.018Z,24.03
2019-02-17T13:45:40.041Z,24.12
2019-02-17T13:47:32.989Z,24.03
2019-02-17T13:48:33.014Z,23.63
2019-02-17T13:50:25.975Z,23.44
2019-02-17T13:51:25.998Z,23.64
2019-02-17T13:53:18.951Z,23.44
2019-02-17T13:54:18.976Z,23.54
2019-02-17T13:56:11.925Z,23.64
2019-02-17T13:57:11.953Z,23.44
2019-02-17T13:59:04.911Z,22.96
2019-02-17T14:00:04.935Z,22.86
2019-02-17T14:01:57.880Z,22.67
2019-02-17T14:02:57.912Z,22.67
2019-02-17T14:04:50.869Z,22.67
2019-02-17T14:05:50.892Z,22.86
2019-02-17T14:07:43.840Z,22.57
2019-02-17T14:08:43.870Z,22.48
2019-02-17T14:10:37.322Z,22.38
2019-02-17T14:11:37.345Z,22.77
2019-02-17T14:13:30.299Z,22.48
2019-02-17T14:14:30.323Z,22.48
2019-02-17T14:16:23.765Z,22.57
2019-02-17T14:17:23.793Z,21.99
2019-02-17T14:19:16.749Z,22.38
2019-02-17T14:20:16.774Z,22.57
2019-02-17T14:22:10.219Z,22.57
2019-02-17T14:23:10.252Z,22.28
2019-02-17T14:25:03.702Z,22.48
2019-02-17T14:26:03.725Z,22.48
2019-02-17T14:27:57.165Z,22.38
2019-02-17T14:28:57.196Z,22.38
2019-02-17T14:30:50.152Z,22.48
2019-02-17T14:31:50.180Z,22.38
2019-02-17T14:33:43.641Z,22.48
2019-02-17T14:34:43.664Z,22.10
2019-02-17T14:36:37.104Z,22.48
2019-02-17T14:37:37.136Z,22.77
2019-02-17T14:39:30.091Z,22.57
2019-02-17T14:40:30.111Z,22.57
2019-02-17T14:42:23.561Z,22.57
2019-02-17T14:43:23.595Z,22.48
2019-02-17T14:45:17.042Z,22.86
2019-02-17T14:46:17.078Z,22.96
2019-02-17T14:48:11.435Z,22.67
2019-02-17T14:49:10.546Z,22.67
2019-02-17T14:51:03.993Z,22.67
2019-02-17T14:52:04.015Z,22.77
2019-02-17T14:53:57.462Z,22.86
2019-02-17T14:54:57.488Z,22.67
2019-02-17T14:56:50.436Z,22.67
2019-02-17T14:57:50.462Z,22.57
2019-02-17T14:59:43.421Z,22.86
2019-02-17T15:00:43.442Z,22.67
2019-02-17T15:02:36.884Z,22.67
2019-02-17T15:03:36.912Z,22.67
2019-02-17T15:05:29.872Z,22.67
2019-02-17T15:06:29.897Z,22.96
2019-02-17T15:08:22.855Z,22.67
2019-02-17T15:09:22.889Z,22.96
2019-02-17T15:11:15.835Z,22.57
2019-02-17T15:12:15.861Z,22.57
2019-02-17T15:14:09.319Z,22.57
2019-02-17T15:15:09.340Z,22.67
2019-02-17T15:17:02.783Z,22.57
2019-02-17T15:18:02.813Z,22.96
2019-02-17T15:19:55.767Z,22.86
2019-02-17T15:20:55.790Z,23.06
2019-02-17T15:22:48.745Z,22.67
2019-02-17T15:23:48.777Z,22.86
2019-02-17T15:25:42.225Z,22.86
2019-02-17T15:26:42.248Z,22.96
2019-02-17T15:28:35.689Z,22.86
2019-02-17T15:29:35.719Z,23.24
2019-02-17T15:31:30.919Z,23.16
2019-02-17T15:32:29.202Z,23.16
2019-02-17T15:34:22.160Z,23.06
2019-02-17T15:35:22.538Z,23.25
2019-02-17T15:37:15.629Z,23.25
2019-02-17T15:38:15.665Z,23.43
2019-02-17T15:40:09.107Z,23.33
2019-02-17T15:41:09.130Z,23.24
2019-02-17T15:43:02.079Z,23.43
2019-02-17T15:44:02.110Z,23.24
2019-02-17T15:45:55.065Z,23.53
2019-02-17T15:46:55.091Z,23.72
2019-02-17T15:48:48.038Z,23.43
2019-02-17T15:49:48.091Z,23.43
2019-02-17T15:51:41.519Z,23.72
2019-02-17T15:52:41.546Z,23.72
2019-02-17T15:54:34.497Z,23.82
2019-02-17T15:55:34.521Z,23.72
2019-02-17T15:57:27.472Z,23.92
2019-02-17T15:58:27.505Z,23.61
2019-02-17T16:00:20.455Z,23.63
2019-02-17T16:01:20.479Z,23.61
2019-02-17T16:03:13.434Z,23.71
2019-02-17T16:04:13.459Z,23.71
2019-02-17T16:06:06.918Z,23.53
2019-02-17T16:07:06.942Z,23.91
2019-02-17T16:09:00.379Z,23.81
2019-02-17T16:10:00.409Z,23.71
2019-02-17T16:11:53.858Z,23.81
2019-02-17T16:12:53.878Z,24.01
2019-02-17T16:14:46.833Z,23.71
2019-02-17T16:15:46.854Z,23.61
2019-02-17T16:17:39.802Z,23.61
2019-02-17T16:18:39.833Z,23.71
2019-02-17T16:20:32.789Z,23.61
2019-02-17T16:21:32.813Z,23.42
2019-02-17T16:23:26.249Z,22.74
2019-02-17T16:24:26.283Z,22.06
2019-02-17T16:26:19.726Z,21.66
2019-02-17T16:27:19.750Z,22.14
2019-02-17T16:29:13.199Z,21.66
2019-02-17T16:30:13.234Z,21.66
2019-02-17T16:32:06.180Z,21.75
2019-02-17T16:33:06.204Z,21.75
2019-02-17T16:34:59.656Z,22.06
2019-02-17T16:35:59.677Z,22.06
2019-02-17T16:37:52.631Z,21.86
2019-02-17T16:38:52.660Z,22.06
2019-02-17T16:40:45.609Z,22.34
2019-02-17T16:41:45.632Z,22.74
2019-02-17T16:43:38.584Z,22.83
2019-02-17T16:44:38.620Z,22.54
2019-02-17T16:46:31.575Z,22.54
2019-02-17T16:47:31.596Z,22.54
2019-02-17T16:49:25.036Z,22.54
2019-02-17T16:50:25.065Z,22.54
2019-02-17T16:52:18.023Z,22.83
2019-02-17T16:53:18.047Z,22.83
2019-02-17T16:55:11.012Z,23.32
2019-02-17T16:56:11.025Z,23.12
2019-02-17T16:58:03.972Z,23.02
2019-02-17T16:59:03.999Z,23.22
2019-02-17T17:00:56.958Z,23.32
2019-02-17T17:01:56.985Z,23.22
2019-02-17T17:03:49.928Z,23.80
2019-02-17T17:04:49.957Z,23.80
2019-02-17T17:06:42.914Z,23.70
2019-02-17T17:07:42.935Z,23.32
2019-02-17T17:09:35.882Z,23.60
2019-02-17T17:10:35.911Z,23.50
2019-02-17T17:12:28.867Z,23.80
2019-02-17T17:13:28.889Z,23.90
2019-02-17T17:15:22.341Z,23.60
2019-02-17T17:16:22.366Z,23.80
2019-02-17T17:18:15.805Z,23.60
2019-02-17T17:19:15.832Z,23.99
2019-02-17T17:21:08.786Z,23.99
2019-02-17T17:22:08.810Z,24.28
2019-02-17T17:24:01.761Z,24.09
2019-02-17T17:25:01.786Z,23.90
2019-02-17T17:26:54.761Z,24.38
2019-02-17T17:27:54.779Z,24.18
2019-02-17T17:29:47.725Z,24.09
2019-02-17T17:30:48.025Z,23.90
2019-02-17T17:32:40.715Z,24.18
2019-02-17T17:33:40.738Z,24.28
2019-02-17T17:35:33.688Z,24.28
2019-02-17T17:36:33.711Z,24.18
2019-02-17T17:38:26.658Z,24.48
2019-02-17T17:39:26.687Z,24.38
2019-02-17T17:41:19.644Z,24.28
2019-02-17T17:42:19.667Z,24.48
2019-02-17T17:44:12.612Z,24.57
2019-02-17T17:45:12.642Z,24.48
2019-02-17T17:47:06.102Z,24.48
2019-02-17T17:48:06.122Z,24.38
2019-02-17T17:49:59.069Z,24.48
2019-02-17T17:50:59.100Z,24.48
2019-02-17T17:52:52.553Z,24.48
2019-02-17T17:53:52.575Z,24.48
2019-02-17T17:55:46.023Z,24.28
2019-02-17T17:56:46.053Z,24.48
2019-02-17T17:58:39.513Z,24.96
2019-02-17T17:59:39.532Z,25.05
2019-02-17T18:01:32.985Z,24.96
2019-02-17T18:02:33.006Z,24.96
2019-02-17T18:04:26.449Z,25.15
2019-02-17T18:05:26.477Z,25.35
2019-02-17T18:07:19.934Z,25.63
2019-02-17T18:08:19.960Z,25.15
2019-02-17T18:10:13.411Z,25.54
2019-02-17T18:11:13.443Z,25.44
2019-02-17T18:13:06.890Z,25.35
2019-02-17T18:14:06.911Z,25.35
2019-02-17T18:16:00.371Z,25.35
2019-02-17T18:17:00.402Z,25.35
2019-02-17T18:18:53.843Z,25.63
2019-02-17T18:19:53.871Z,25.25
2019-02-17T18:21:47.326Z,25.35
2019-02-17T18:22:47.346Z,25.54
2019-02-17T18:24:40.790Z,25.35
2019-02-17T18:25:40.816Z,25.25
2019-02-17T18:27:34.281Z,25.44
2019-02-17T18:28:34.299Z,25.35
2019-02-17T18:30:27.754Z,25.44
2019-02-17T18:31:27.844Z,25.34
2019-02-17T18:33:21.283Z,25.35